Time;durP1;ratioP1;P1;durP2;ratioP2;P2;SDS_P1;SDS_P2;PMS_P1;PMS_P2;Temp;Humidity;BMP_temperature;BMP_pressure;BME280_temperature;BME280_humidity;BME280_pressure;Samples;Min_cycle;Max_cycle;Signal;HPM_P1;HPM_P2
2023/01/31 00:00:10;;;;;;;26.42;3.30;;;3.70;99.90;;;;;;20635005;28;20134;-44
2023/01/31 00:10:11;;;;;;;11.85;1.75;;;3.60;99.90;;;;;;20635345;28;20665;-44
2023/01/31 00:20:12;;;;;;;4.53;1.27;;;3.70;99.90;;;;;;20633189;28;20141;-44
2023/01/31 00:30:13;;;;;;;4.10;1.83;;;3.80;99.90;;;;;;20626147;28;20408;-44
2023/01/31 00:40:14;;;;;;;3.65;1.50;;;3.80;99.90;;;;;;20631221;28;20119;-44
2023/01/31 00:50:15;;;;;;;4.00;1.48;;;3.70;99.90;;;;;;20639054;28;20125;-44
2023/01/31 01:00:17;;;;;;;4.13;1.20;;;3.70;99.90;;;;;;20634282;28;20667;-44
2023/01/31 01:10:18;;;;;;;3.83;0.77;;;3.70;99.90;;;;;;20627477;28;20193;-44
2023/01/31 01:20:19;;;;;;;7.18;2.58;;;3.80;99.90;;;;;;20626050;28;20557;-44
2023/01/31 01:30:20;;;;;;;6.45;2.03;;;3.80;99.90;;;;;;20630679;28;20903;-44
2023/01/31 01:40:21;;;;;;;2.80;0.90;;;3.70;99.90;;;;;;20626365;28;20137;-44
2023/01/31 01:50:28;;;;;;;4.55;1.67;;;3.60;99.90;;;;;;20627206;28;20042;-44
2023/01/31 02:00:31;;;;;;;6.68;2.63;;;3.60;99.90;;;;;;20628793;28;20548;-44
2023/01/31 02:11:04;;;;;;;9.77;2.28;;;3.60;99.90;;;;;;20615816;28;20042;-44
2023/01/31 02:21:26;;;;;;;3.17;1.60;;;3.70;99.90;;;;;;20627504;28;20169;-44
2023/01/31 02:31:45;;;;;;;6.40;2.00;;;3.80;99.90;;;;;;20611360;28;21574;-44
2023/01/31 02:42:14;;;;;;;5.05;2.00;;;3.90;99.90;;;;;;20620258;28;21381;-44
2023/01/31 02:52:19;;;;;;;7.70;1.52;;;4.10;99.90;;;;;;20618677;28;20054;-44
2023/01/31 03:02:21;;;;;;;15.20;3.35;;;4.20;99.90;;;;;;20634885;28;20561;-44
2023/01/31 03:12:50;;;;;;;11.65;3.38;;;4.30;99.90;;;;;;20636714;28;20428;-44
2023/01/31 03:22:57;;;;;;;17.10;3.88;;;4.50;99.90;;;;;;20642823;28;20875;-44
2023/01/31 03:33:01;;;;;;;;;;;4.90;99.90;;;;;;20635079;28;20164;-44
2023/01/31 03:43:19;;;;;;;6.68;2.53;;;5.00;99.90;;;;;;20637017;28;20003;-44
2023/01/31 03:53:33;;;;;;;16.70;4.28;;;5.20;99.90;;;;;;20626986;28;20054;-44
2023/01/31 04:03:42;;;;;;;5.20;2.53;;;5.20;99.90;;;;;;20623823;28;20938;-44
2023/01/31 04:13:43;;;;;;;6.80;3.15;;;5.20;99.90;;;;;;20633942;28;20076;-44
2023/01/31 04:23:44;;;;;;;26.30;3.72;;;5.20;99.90;;;;;;20640094;28;20030;-44
2023/01/31 04:33:45;;;;;;;4.65;2.58;;;5.10;99.90;;;;;;20626739;28;20058;-44
2023/01/31 04:43:46;;;;;;;7.00;1.95;;;5.10;99.90;;;;;;20630280;28;20073;-44
2023/01/31 04:53:47;;;;;;;22.35;3.80;;;5.00;99.90;;;;;;20644533;28;20499;-44
2023/01/31 05:03:48;;;;;;;16.15;5.35;;;5.00;99.90;;;;;;20634245;28;20125;-44
2023/01/31 05:13:49;;;;;;;20.85;5.55;;;5.10;99.90;;;;;;20638118;28;20216;-44
2023/01/31 05:23:50;;;;;;;12.82;3.97;;;5.10;99.90;;;;;;20650001;28;20038;-44
2023/01/31 05:33:52;;;;;;;9.93;4.18;;;5.20;99.90;;;;;;20645897;28;20125;-44
2023/01/31 05:43:53;;;;;;;12.25;3.95;;;5.30;99.90;;;;;;20639821;28;20153;-44
2023/01/31 05:53:54;;;;;;;20.48;4.03;;;5.30;99.90;;;;;;20631301;28;20481;-44
2023/01/31 06:03:55;;;;;;;10.68;4.00;;;5.30;99.90;;;;;;20627153;28;20062;-44
2023/01/31 06:13:57;;;;;;;13.15;4.75;;;5.50;99.90;;;;;;20629308;28;20081;-44
2023/01/31 06:23:58;;;;;;;7.68;3.97;;;5.50;99.90;;;;;;20633000;28;20069;-44
2023/01/31 06:33:59;;;;;;;6.00;3.20;;;5.60;99.90;;;;;;20622217;28;20045;-44
2023/01/31 06:44:00;;;;;;;11.45;3.47;;;5.60;99.90;;;;;;20617490;28;20180;-44
2023/01/31 06:54:01;;;;;;;8.43;2.97;;;5.60;99.90;;;;;;20628777;28;20155;-44
2023/01/31 07:04:02;;;;;;;11.82;3.97;;;5.60;99.90;;;;;;20618951;28;20050;-44
2023/01/31 07:14:03;;;;;;;17.23;2.85;;;5.70;99.90;;;;;;20624743;28;20125;-44
2023/01/31 07:24:05;;;;;;;5.40;1.88;;;5.90;99.90;;;;;;20640013;28;20124;-44
2023/01/31 07:34:06;;;;;;;7.60;1.80;;;6.10;99.90;;;;;;20625403;28;20130;-44
2023/01/31 07:44:09;;;;;;;3.58;1.27;;;6.20;99.90;;;;;;20644582;28;20495;-44
2023/01/31 07:54:10;;;;;;;3.67;1.15;;;6.30;99.90;;;;;;20642898;28;20093;-44
2023/01/31 08:04:14;;;;;;;13.00;2.35;;;6.30;99.90;;;;;;20645091;28;20180;-44
2023/01/31 08:14:15;;;;;;;9.23;2.20;;;6.30;99.90;;;;;;20646617;28;20563;-44
2023/01/31 08:24:16;;;;;;;4.95;1.70;;;6.40;99.90;;;;;;20630386;28;20497;-44
2023/01/31 08:34:17;;;;;;;3.50;0.98;;;6.40;99.90;;;;;;20631693;28;20633;-44
2023/01/31 08:44:18;;;;;;;5.63;1.77;;;6.50;99.90;;;;;;20627327;28;20069;-44
2023/01/31 08:54:19;;;;;;;2.13;0.80;;;6.50;99.90;;;;;;20590272;28;20038;-44
2023/01/31 09:04:20;;;;;;;5.03;1.58;;;6.70;99.90;;;;;;20634988;28;20036;-44
2023/01/31 09:14:21;;;;;;;4.95;1.42;;;6.80;99.90;;;;;;20630139;28;20047;-44
2023/01/31 09:24:22;;;;;;;8.93;1.70;;;6.80;99.90;;;;;;20635387;28;20068;-44
2023/01/31 09:34:23;;;;;;;4.30;2.40;;;7.00;99.90;;;;;;20639441;28;20611;-44
2023/01/31 09:44:29;;;;;;;7.20;1.75;;;7.00;99.90;;;;;;20647692;28;20081;-44
2023/01/31 09:54:37;;;;;;;5.28;2.13;;;7.20;99.90;;;;;;20631083;28;20074;-44
2023/01/31 10:05:20;;;;;;;6.63;2.13;;;7.30;99.90;;;;;;20624696;28;20843;-44
2023/01/31 10:15:35;;;;;;;3.35;1.75;;;7.40;99.90;;;;;;20614791;28;20050;-44
2023/01/31 10:25:52;;;;;;;4.32;1.58;;;7.40;99.90;;;;;;20652630;28;20865;-44
2023/01/31 10:35:56;;;;;;;4.07;1.90;;;7.60;99.90;;;;;;20637695;28;20053;-44
2023/01/31 10:45:59;;;;;;;4.75;1.80;;;7.70;99.90;;;;;;20641064;28;20042;-44
2023/01/31 10:56:10;;;;;;;4.57;1.85;;;7.90;99.90;;;;;;20637367;28;20180;-44
2023/01/31 11:06:11;;;;;;;3.53;1.80;;;7.90;99.90;;;;;;20643293;28;20092;-44
2023/01/31 11:16:12;;;;;;;3.38;1.77;;;7.90;99.90;;;;;;20631501;28;20133;-44
2023/01/31 11:26:25;;;;;;;7.43;1.88;;;7.80;99.90;;;;;;20652187;28;20168;-44
2023/01/31 11:36:33;;;;;;;6.38;1.42;;;7.90;99.90;;;;;;20658945;28;20481;-44
2023/01/31 11:46:52;;;;;;;8.02;1.55;;;8.00;99.90;;;;;;20652039;28;20160;-44
2023/01/31 11:56:55;;;;;;;9.98;1.92;;;8.20;99.90;;;;;;20658412;28;20126;-44
2023/01/31 12:07:05;;;;;;;4.78;1.70;;;8.20;99.90;;;;;;20658423;28;20037;-44
2023/01/31 12:17:15;;;;;;;4.07;1.33;;;8.30;99.90;;;;;;20654281;28;20105;-44
2023/01/31 12:27:40;;;;;;;9.55;1.88;;;8.40;99.90;;;;;;20639283;28;20117;-44
2023/01/31 12:37:44;;;;;;;8.48;1.85;;;8.70;99.90;;;;;;20636587;28;20084;-44
2023/01/31 12:48:23;;;;;;;28.67;3.78;;;8.90;99.90;;;;;;20642108;28;20061;-44
2023/01/31 12:58:41;;;;;;;12.63;2.28;;;8.90;99.90;;;;;;20652701;28;20076;-44
2023/01/31 13:09:07;;;;;;;3.97;1.60;;;8.90;99.90;;;;;;20633959;28;20679;-44
2023/01/31 13:19:40;;;;;;;4.10;1.55;;;9.10;99.90;;;;;;20641746;28;20069;-44
2023/01/31 13:29:56;;;;;;;7.70;1.70;;;9.10;99.90;;;;;;20629686;28;20316;-44
2023/01/31 13:40:01;;;;;;;4.53;2.03;;;9.20;99.90;;;;;;20628449;28;20136;-44
2023/01/31 13:50:08;;;;;;;3.03;1.75;;;9.20;99.90;;;;;;20634707;28;20154;-44
2023/01/31 14:00:28;;;;;;;;;;;9.40;99.90;;;;;;20652654;28;20038;-44
2023/01/31 14:10:36;;;;;;;8.30;1.38;;;10.20;58.40;;;;;;20644844;28;19983;-44
2023/01/31 14:20:37;;;;;;;2.67;0.95;;;10.30;44.30;;;;;;20650700;28;20635;-44
2023/01/31 14:30:46;;;;;;;3.90;1.20;;;10.20;36.50;;;;;;20650000;28;20053;-44
2023/01/31 14:41:09;;;;;;;8.95;1.75;;;10.30;36.10;;;;;;20640181;28;20045;-43
2023/01/31 14:51:19;;;;;;;2.97;1.15;;;10.30;33.60;;;;;;20665216;28;20117;-44
2023/01/31 15:01:22;;;;;;;4.00;1.45;;;9.80;36.90;;;;;;20671109;28;20281;-44
2023/01/31 15:11:39;;;;;;;10.65;2.22;;;9.70;38.50;;;;;;20660596;28;20109;-44
2023/01/31 15:21:49;;;;;;;2.47;1.13;;;9.80;29.90;;;;;;20664862;28;21800;-44
2023/01/31 15:31:54;;;;;;;6.88;2.30;;;9.50;21.40;;;;;;20664021;28;20498;-44
2023/01/31 15:41:55;;;;;;;4.20;1.23;;;9.50;26.10;;;;;;20662345;28;20081;-44
2023/01/31 15:52:02;;;;;;;5.15;0.85;;;9.40;32.00;;;;;;20667817;28;20074;-44
2023/01/31 16:02:04;;;;;;;8.03;2.10;;;9.30;39.50;;;;;;20664667;28;20046;-44
2023/01/31 16:12:05;;;;;;;6.07;1.95;;;9.20;40.90;;;;;;20648353;28;20128;-43
2023/01/31 16:22:25;;;;;;;8.48;1.95;;;9.10;22.30;;;;;;20649556;28;20077;-43
2023/01/31 16:32:30;;;;;;;8.20;1.50;;;8.80;12.00;;;;;;20638059;28;20138;-44
2023/01/31 16:42:34;;;;;;;4.35;1.98;;;8.60;9.70;;;;;;20635504;28;20161;-44
2023/01/31 16:52:35;;;;;;;5.20;1.73;;;8.40;6.40;;;;;;20644425;28;20880;-44
2023/01/31 17:02:40;;;;;;;4.68;1.20;;;8.20;3.30;;;;;;20637782;28;20083;-44
2023/01/31 17:12:42;;;;;;;6.68;2.25;;;8.10;3.80;;;;;;20642739;28;20085;-44
2023/01/31 17:22:44;;;;;;;4.32;2.15;;;7.80;6.90;;;;;;20626430;28;20624;-44
2023/01/31 17:32:47;;;;;;;11.50;2.40;;;7.50;11.40;;;;;;20637793;28;20132;-44
2023/01/31 17:42:52;;;;;;;3.20;1.35;;;7.40;14.20;;;;;;20629952;28;20236;-44
2023/01/31 17:52:54;;;;;;;3.97;2.08;;;7.40;12.60;;;;;;20640478;28;20294;-44
2023/01/31 18:02:55;;;;;;;8.07;2.75;;;7.10;14.10;;;;;;20662875;28;20088;-44
2023/01/31 18:12:56;;;;;;;2.95;1.30;;;7.00;13.90;;;;;;20646897;28;20041;-44
2023/01/31 18:22:57;;;;;;;7.20;1.20;;;6.70;19.60;;;;;;20637742;28;20046;-44
2023/01/31 18:32:58;;;;;;;11.23;3.03;;;6.60;27.00;;;;;;20640424;28;20069;-43
2023/01/31 18:42:59;;;;;;;6.05;1.42;;;6.50;28.90;;;;;;20634071;28;20053;-43
2023/01/31 18:53:00;;;;;;;11.38;2.38;;;6.40;32.00;;;;;;20623502;28;20518;-44
2023/01/31 19:03:01;;;;;;;14.68;2.63;;;6.40;31.80;;;;;;20630443;28;20410;-43
2023/01/31 19:13:02;;;;;;;9.65;2.15;;;6.40;34.10;;;;;;20631598;28;20607;-44
2023/01/31 19:23:03;;;;;;;7.00;2.90;;;6.40;28.10;;;;;;20632143;28;20034;-44
2023/01/31 19:33:05;;;;;;;3.35;1.80;;;6.40;27.40;;;;;;20635657;28;20045;-44
2023/01/31 19:43:06;;;;;;;5.90;3.30;;;6.50;19.30;;;;;;20635821;28;20092;-44
2023/01/31 19:53:07;;;;;;;5.32;3.08;;;6.70;12.70;;;;;;20639004;28;20728;-43
2023/01/31 20:03:08;;;;;;;6.25;2.22;;;6.70;10.00;;;;;;20637122;28;20402;-43
2023/01/31 20:13:09;;;;;;;6.47;2.58;;;6.60;8.60;;;;;;20642444;28;20042;-43
2023/01/31 20:23:10;;;;;;;9.10;3.13;;;6.50;6.10;;;;;;20638439;28;20576;-43
2023/01/31 20:33:12;;;;;;;4.47;1.63;;;6.30;4.30;;;;;;20643940;28;20678;-43
2023/01/31 20:43:13;;;;;;;2.60;0.82;;;6.10;3.90;;;;;;20644759;28;20065;-44
2023/01/31 20:53:17;;;;;;;3.17;0.82;;;6.00;3.50;;;;;;20644574;28;20041;-44
2023/01/31 21:03:18;;;;;;;3.75;1.63;;;5.90;4.30;;;;;;20642330;28;20615;-43
2023/01/31 21:13:20;;;;;;;11.65;4.53;;;5.80;7.00;;;;;;20643535;28;20123;-43
2023/01/31 21:23:22;;;;;;;4.55;1.92;;;5.50;9.40;;;;;;20651601;28;20034;-44
2023/01/31 21:33:24;;;;;;;10.38;2.65;;;5.40;10.90;;;;;;20648269;28;20046;-43
2023/01/31 21:43:25;;;;;;;9.43;2.03;;;5.30;16.30;;;;;;20656990;28;20050;-43
2023/01/31 21:53:26;;;;;;;4.93;2.22;;;5.20;24.60;;;;;;20647658;28;20151;-43
2023/01/31 22:03:27;;;;;;;4.75;1.95;;;5.30;39.30;;;;;;20644167;28;20046;-43
2023/01/31 22:13:28;;;;;;;4.78;1.55;;;5.40;39.90;;;;;;20651012;28;20449;-43
2023/01/31 22:23:30;;;;;;;37.30;4.00;;;5.50;34.10;;;;;;20648874;28;20078;-44
2023/01/31 22:33:34;;;;;;;5.30;1.67;;;5.40;34.10;;;;;;20632549;28;20172;-43
2023/01/31 22:43:36;;;;;;;8.98;2.45;;;5.40;28.90;;;;;;20626642;28;21840;-43
2023/01/31 22:53:38;;;;;;;5.72;2.10;;;5.40;30.00;;;;;;20623217;28;20144;-43
2023/01/31 23:03:40;;;;;;;5.70;2.15;;;5.30;24.70;;;;;;20621812;28;20118;-43
2023/01/31 23:13:42;;;;;;;11.07;2.40;;;5.40;23.60;;;;;;20633348;28;20133;-44
2023/01/31 23:23:44;;;;;;;9.60;2.72;;;5.50;22.50;;;;;;20641719;28;20143;-44
2023/01/31 23:33:45;;;;;;;11.43;2.72;;;5.70;21.20;;;;;;20636225;28;20197;-43
2023/01/31 23:43:46;;;;;;;7.72;2.55;;;5.80;20.60;;;;;;20646196;28;20046;-43
2023/01/31 23:53:47;;;;;;;11.23;2.22;;;5.90;21.80;;;;;;20633948;28;21089;-44
